Grants Pass, OR (97526)

5:27 AM PST on January 16, 2017 (GMT -0800)
Northwest Grants Pass | | Change Station
Active Advisory: Air Stagnation Advisory

Elev 1037 ft 42.45 °N, 123.33 °W | Updated 8 seconds ago

Clear
Clear
32.2 °F
Feels Like 32 °F
N
0.0
Wind Variable Wind from SSW
Gusts 0.0 mph

Today
High -- | Low -- °F
--% Chance of Precip.
Yesterday
High -- | Low -- °F
Precip. -- in
Pressure 30.28 in
Visibility 2.0 miles
Clouds Mostly Cloudy 300 ft
Windchill 32 °F
Dew Point 32 °F
Humidity 97%
Rainfall 0.00 in
Snow Depth Not available.
7:39 AM 5:07 PM
Waning Gibbous, 81% visible
SPECI KMFR 161314Z AUTO 00000KT 2SM R14/2200V4000FT BR BKN003 M02/M02 A3028 RMK AO2 T10171017
Pressure 30.28 in
Visibility 2.0 miles
Clouds Mostly Cloudy 300 ft
Windchill 32 °F
Dew Point 32 °F
Humidity 97%
Rainfall 0.00 in
Snow Depth Not available.
7:39 AM 5:07 PM
Waning Gibbous, 81% visible
SPECI KMFR 161314Z AUTO 00000KT 2SM R14/2200V4000FT BR BKN003 M02/M02 A3028 RMK AO2 T10171017

Get Your Daily Forecast Email!

Thanks for signing up!

Be on the lookout for a verification email in your inbox.

You'll start receiving the daily forecast at 8 AM.

×

10-Day Weather Forecast

Almanac

Astronomy

Jan. 16, 2017 Rise Set
Actual Time
Civil Twilight
Nautical Twilight
Astronomical Twilight
Moon
Length of Visible Light
Length of Day
Tomorrow will be .
, % of the Moon is Illuminated

Today's Extremes

State Highs State Lows

Community

WunderPhotos

Upload Photos

1,962,540 photos uploaded!

WunderBlog® & News

Nearby

Air Quality

  Air Quality AQ Index Pollutant
Not available.

Snow Depth

Station Depth Elevation

Earthquake Activity

City Distance Mag. Time & Date
Minimum magnitude displayed is 2.5.

Coastal Water Temperatures

Place Temperature

Stations

Nearby Weather Stations

Station Location Temp. Windchill Dew Point Humidity Wind Precip. Elev Updated Type
                   

Watches & Warnings

Air Stagnation Advisory
Issued: 2:49 AM PST Jan. 16, 2017 – National Weather Service

... Air stagnation advisory remains in effect until 10 am PST
Tuesday...

* air quality... light winds and limited vertical mixing could
diminish air quality in the valleys of Jackson... Josephine and
eastern Curry counties through Tuesday morning.

* Locations include... Medford... Grants Pass... Merlin... Cave
Junction... Gold Hill... Williams... Ashland.

* Impacts... diminished air quality could negatively affect
health... especially for those with respiratory sensitivities.
Please see the Oregon department of air quality's web site at
http://www.Deq.State.US/aqi for detailed air quality information
and thresholds.


Precautionary/preparedness actions...

* an air stagnation advisory indicates that due to limited
movement of an airmass across the advisory area... pollution
will increase.